createdAt,value
2018-04-12T06:13:04.904Z,34.90
2018-04-12T06:15:33.152Z,33.30
2018-04-12T06:18:01.226Z,35.50
2018-04-12T06:20:29.175Z,37.70
2018-04-12T06:22:57.228Z,38.20
2018-04-12T06:25:25.343Z,38.30
2018-04-12T06:27:54.088Z,37.30
2018-04-12T06:30:22.884Z,37.30
2018-04-12T06:32:51.209Z,36.10
2018-04-12T06:35:19.251Z,35.10
2018-04-12T06:37:47.397Z,34.40
2018-04-12T06:40:15.408Z,34.30
2018-04-12T06:42:43.250Z,34.50
2018-04-12T06:45:11.298Z,34.40
2018-04-12T06:47:39.165Z,34.30
2018-04-12T06:50:07.002Z,34.50
2018-04-12T06:52:34.907Z,34.70
2018-04-12T06:55:02.702Z,34.10
2018-04-12T06:57:30.516Z,34.40
2018-04-12T06:59:58.383Z,34.40
2018-04-12T07:02:26.335Z,33.90
2018-04-12T07:04:54.204Z,33.90
2018-04-12T07:07:22.098Z,33.90
2018-04-12T07:09:49.987Z,34.00
2018-04-12T07:12:17.838Z,33.70
2018-04-12T07:14:45.689Z,34.40
2018-04-12T07:17:14.369Z,34.40
2018-04-12T07:19:43.020Z,34.50
2018-04-12T07:22:10.968Z,34.50
2018-04-12T07:24:38.759Z,34.10
2018-04-12T07:27:07.123Z,34.40
2018-04-12T07:29:35.012Z,34.30
2018-04-12T07:32:02.824Z,34.10
2018-04-12T07:34:31.529Z,34.10
2018-04-12T07:36:59.491Z,34.10
2018-04-12T07:39:27.425Z,33.70
2018-04-12T07:41:55.260Z,34.10
2018-04-12T07:44:23.229Z,33.90
2018-04-12T07:46:51.126Z,33.70
2018-04-12T07:49:18.990Z,34.00
2018-04-12T07:51:46.920Z,34.20
2018-04-12T07:54:14.818Z,34.20
2018-04-12T07:56:42.832Z,34.60
2018-04-12T07:59:10.674Z,34.10
2018-04-12T08:01:38.565Z,34.00
2018-04-12T08:04:06.452Z,34.30
2018-04-12T08:06:35.874Z,33.90
2018-04-12T08:09:03.870Z,33.20
2018-04-12T08:11:32.348Z,33.70
2018-04-12T08:14:00.926Z,33.90
2018-04-12T08:16:29.696Z,34.30
2018-04-12T08:18:57.484Z,34.20
2018-04-12T08:21:26.133Z,34.70
2018-04-12T08:23:53.999Z,34.70
2018-04-12T08:26:21.814Z,34.00
2018-04-12T08:28:49.692Z,34.10
2018-04-12T08:31:17.473Z,33.70
2018-04-12T08:33:45.233Z,33.70
2018-04-12T08:36:13.067Z,33.90
2018-04-12T08:38:40.920Z,34.10
2018-04-12T08:41:08.747Z,34.50
2018-04-12T08:43:36.595Z,34.10
2018-04-12T08:46:04.536Z,34.00
2018-04-12T08:48:32.402Z,34.20
2018-04-12T08:51:00.257Z,34.90
2018-04-12T08:53:28.190Z,34.70
2018-04-12T08:55:56.091Z,34.60
2018-04-12T08:58:23.883Z,34.90
2018-04-12T09:00:51.762Z,34.80
2018-04-12T09:03:19.630Z,34.50
2018-04-12T09:05:47.513Z,34.50
2018-04-12T09:08:15.346Z,34.60
2018-04-12T09:10:43.114Z,34.50
2018-04-12T09:13:10.971Z,34.50
2018-04-12T09:15:38.833Z,34.50
2018-04-12T09:18:06.633Z,34.50
2018-04-12T09:20:34.572Z,35.50
2018-04-12T09:23:02.492Z,35.10
2018-04-12T09:25:30.339Z,34.60
2018-04-12T09:27:58.228Z,34.90
2018-04-12T09:30:25.977Z,35.00
2018-04-12T09:32:54.661Z,35.10
2018-04-12T09:35:23.230Z,35.00
2018-04-12T09:37:51.015Z,35.00
2018-04-12T09:40:18.772Z,35.00
2018-04-12T09:42:47.381Z,35.50
2018-04-12T09:45:15.258Z,35.40
2018-04-12T09:47:43.005Z,35.40
2018-04-12T09:50:10.936Z,35.70
2018-04-12T09:52:39.584Z,35.50
2018-04-12T09:55:07.424Z,35.50
2018-04-12T09:57:35.341Z,36.00
2018-04-12T10:00:03.311Z,35.30
2018-04-12T10:02:31.118Z,35.30
2018-04-12T10:04:58.949Z,35.70
2018-04-12T10:07:27.592Z,35.40
2018-04-12T10:09:55.471Z,35.30
2018-04-12T10:12:23.305Z,35.50
2018-04-12T10:14:51.213Z,35.50
2018-04-12T10:17:19.140Z,35.50
2018-04-12T10:19:46.929Z,35.80
2018-04-12T10:22:14.777Z,35.90
2018-04-12T10:24:42.641Z,35.90
2018-04-12T10:27:10.360Z,36.10
2018-04-12T10:29:38.196Z,36.40
2018-04-12T10:32:06.033Z,36.30
2018-04-12T10:34:33.926Z,36.40
2018-04-12T10:37:01.857Z,36.30
2018-04-12T10:39:29.824Z,36.60
2018-04-12T10:41:57.594Z,36.70
2018-04-12T10:44:25.370Z,36.70
2018-04-12T10:46:53.070Z,36.60
2018-04-12T10:49:21.783Z,36.90
2018-04-12T10:51:49.667Z,36.80
2018-04-12T10:54:17.443Z,36.80
2018-04-12T10:56:45.207Z,36.80
2018-04-12T10:59:13.157Z,36.80
2018-04-12T11:01:41.128Z,37.20
2018-04-12T11:04:08.930Z,36.80
2018-04-12T11:06:37.634Z,37.00
2018-04-12T11:09:05.522Z,37.00
2018-04-12T11:11:33.358Z,37.00
2018-04-12T11:14:01.298Z,36.50
2018-04-12T11:16:29.183Z,36.50
2018-04-12T11:18:57.851Z,37.20
2018-04-12T11:21:25.753Z,37.20
2018-04-12T11:23:53.649Z,36.80
2018-04-12T11:26:21.653Z,36.50
2018-04-12T11:28:49.539Z,36.30
2018-04-12T11:31:17.359Z,36.70
2018-04-12T11:33:45.241Z,37.10
2018-04-12T11:36:13.083Z,37.70
2018-04-12T11:38:41.027Z,37.40
2018-04-12T11:41:08.843Z,37.00
2018-04-12T11:43:36.724Z,36.70
2018-04-12T11:46:05.477Z,36.40
2018-04-12T11:48:33.258Z,36.50
2018-04-12T11:51:01.924Z,35.80
2018-04-12T11:53:29.845Z,35.80
2018-04-12T11:55:57.765Z,36.40
2018-04-12T11:58:25.565Z,36.30
2018-04-12T12:00:53.382Z,36.20
2018-04-12T12:03:21.343Z,36.70
2018-04-12T12:05:49.161Z,36.50
2018-04-12T12:08:26.237Z,36.40
2018-04-12T12:10:54.120Z,37.50
2018-04-12T12:13:21.879Z,36.10
2018-04-12T12:15:49.743Z,36.30
2018-04-12T12:18:17.618Z,36.30
2018-04-12T12:20:45.645Z,36.30
2018-04-12T12:23:13.522Z,36.80
2018-04-12T12:25:41.407Z,36.30
2018-04-12T12:28:09.289Z,36.90
2018-04-12T12:30:37.062Z,36.50
2018-04-12T12:33:05.104Z,36.50
2018-04-12T12:35:32.990Z,36.30
2018-04-12T12:38:00.815Z,36.20
2018-04-12T12:40:29.484Z,36.30
2018-04-12T12:42:57.329Z,36.30
2018-04-12T12:45:25.232Z,36.80
2018-04-12T12:47:53.105Z,36.80
2018-04-12T12:50:20.881Z,37.20
2018-04-12T12:52:48.693Z,36.30
2018-04-12T12:55:16.660Z,38.20
2018-04-12T12:57:44.431Z,36.90
2018-04-12T13:00:12.386Z,36.50
2018-04-12T13:02:40.295Z,36.80
2018-04-12T13:05:08.159Z,36.40
2018-04-12T13:07:36.148Z,36.50
2018-04-12T13:10:04.154Z,36.40
2018-04-12T13:12:32.211Z,36.50
2018-04-12T13:15:00.137Z,36.50
2018-04-12T13:17:27.959Z,36.80
2018-04-12T13:19:55.836Z,36.60
2018-04-12T13:22:24.892Z,37.20
2018-04-12T13:24:52.791Z,37.00
2018-04-12T13:27:20.735Z,37.60
2018-04-12T13:29:48.522Z,37.40
2018-04-12T13:32:16.396Z,37.20
2018-04-12T13:34:45.215Z,37.10
2018-04-12T13:37:12.997Z,37.00
2018-04-12T13:39:40.974Z,37.10
2018-04-12T13:42:08.913Z,37.30
2018-04-12T13:44:36.797Z,36.70
2018-04-12T13:47:04.739Z,37.00
2018-04-12T13:49:32.763Z,36.60
2018-04-12T13:52:00.618Z,36.50
2018-04-12T13:54:28.331Z,36.50
2018-04-12T13:56:56.182Z,36.50
2018-04-12T13:59:23.957Z,36.70
2018-04-12T14:01:51.960Z,36.80
2018-04-12T14:04:19.818Z,37.30
2018-04-12T14:06:48.121Z,37.20
2018-04-12T14:09:15.934Z,37.30
2018-04-12T14:11:43.773Z,37.20
2018-04-12T14:14:12.431Z,37.50
2018-04-12T14:16:40.267Z,37.40
2018-04-12T14:19:08.121Z,38.40
2018-04-12T14:21:35.944Z,38.50
2018-04-12T14:24:04.536Z,39.10
2018-04-12T14:26:33.166Z,39.10
2018-04-12T14:29:01.064Z,39.10
2018-04-12T14:31:28.874Z,38.50
2018-04-12T14:33:56.748Z,38.30
2018-04-12T14:36:24.660Z,38.00
2018-04-12T14:38:52.682Z,37.80
2018-04-12T14:41:20.714Z,37.90
2018-04-12T14:43:49.282Z,37.80
2018-04-12T14:46:17.272Z,37.70
2018-04-12T14:48:45.099Z,37.70
2018-04-12T14:51:12.898Z,38.20
2018-04-12T14:53:40.889Z,37.60
2018-04-12T14:56:08.826Z,37.40
2018-04-12T14:58:37.465Z,37.60
2018-04-12T15:01:05.322Z,37.60
2018-04-12T15:03:33.208Z,37.40
2018-04-12T15:06:00.980Z,37.30
2018-04-12T15:08:28.849Z,37.20
2018-04-12T15:10:56.723Z,37.40
2018-04-12T15:13:25.345Z,37.40
2018-04-12T15:15:53.233Z,37.30
2018-04-12T15:18:21.155Z,37.40
2018-04-12T15:20:48.997Z,37.30
2018-04-12T15:23:16.957Z,37.40
2018-04-12T15:25:44.716Z,37.50
2018-04-12T15:28:12.512Z,37.50
2018-04-12T15:30:40.384Z,37.50
2018-04-12T15:33:08.247Z,37.60
2018-04-12T15:35:36.271Z,37.50
2018-04-12T15:38:04.105Z,37.50
2018-04-12T15:40:31.953Z,37.60
2018-04-12T15:43:00.011Z,37.60
2018-04-12T15:45:27.817Z,37.60
2018-04-12T15:47:55.802Z,37.60
2018-04-12T15:50:23.607Z,37.60
2018-04-12T15:52:51.472Z,38.00
